Time;durP1;ratioP1;P1;durP2;ratioP2;P2;SDS_P1;SDS_P2;PMS_P1;PMS_P2;Temp;Humidity;BMP_temperature;BMP_pressure;BME280_temperature;BME280_humidity;BME280_pressure;Samples;Min_cycle;Max_cycle;Signal;HPM_P1;HPM_P2
2021/08/31 00:02:23;;;;;;;19.55;15.60;;;15.50;99.90;;;;;;6140819;23;20188;-87
2021/08/31 00:04:52;;;;;;;18.17;15.07;;;15.40;99.90;;;;;;6140182;23;20193;-86
2021/08/31 00:07:19;;;;;;;22.20;17.55;;;15.40;99.90;;;;;;6140560;23;20332;-85
2021/08/31 00:09:47;;;;;;;20.90;15.90;;;15.40;99.90;;;;;;6139452;23;20241;-86
2021/08/31 00:12:15;;;;;;;20.88;16.85;;;15.40;99.90;;;;;;6139684;23;20372;-87
2021/08/31 00:14:44;;;;;;;23.08;17.00;;;15.40;99.90;;;;;;6139510;23;20182;-86
2021/08/31 00:17:13;;;;;;;21.30;17.10;;;15.30;99.90;;;;;;6143509;23;20197;-86
2021/08/31 00:19:42;;;;;;;21.13;15.48;;;15.30;99.90;;;;;;6137655;23;20261;-85
2021/08/31 00:22:09;;;;;;;27.90;21.35;;;15.20;99.90;;;;;;6130981;23;20216;-87
2021/08/31 00:24:42;;;;;;;19.73;15.52;;;15.30;99.90;;;;;;6131852;23;20577;-87
2021/08/31 00:27:10;;;;;;;27.50;17.58;;;15.20;99.90;;;;;;6130109;23;20245;-87
2021/08/31 00:29:38;;;;;;;22.48;16.88;;;15.20;99.90;;;;;;6130880;23;20217;-84
2021/08/31 00:32:06;;;;;;;24.00;17.08;;;15.20;99.90;;;;;;6130835;23;20181;-85
2021/08/31 00:34:33;;;;;;;21.52;16.23;;;15.20;99.90;;;;;;6130456;23;20574;-86
2021/08/31 00:37:02;;;;;;;24.83;19.15;;;15.20;99.90;;;;;;6127916;23;20194;-86
2021/08/31 00:39:31;;;;;;;27.02;18.65;;;15.20;99.90;;;;;;6128647;23;20208;-87
2021/08/31 00:41:59;;;;;;;21.33;16.52;;;15.20;99.90;;;;;;6129635;23;20277;-85
2021/08/31 00:44:29;;;;;;;24.13;18.35;;;15.20;99.90;;;;;;6129206;23;20186;-85
2021/08/31 00:46:57;;;;;;;23.70;18.30;;;15.20;99.90;;;;;;6130115;23;20197;-85
2021/08/31 00:49:24;;;;;;;26.35;20.05;;;15.20;99.90;;;;;;6129868;23;20596;-86
2021/08/31 00:51:53;;;;;;;22.95;17.65;;;15.10;99.90;;;;;;6132515;23;20260;-87
2021/08/31 00:54:20;;;;;;;30.50;20.63;;;15.10;99.90;;;;;;6135833;23;20182;-86
2021/08/31 00:56:50;;;;;;;28.20;20.25;;;15.10;99.90;;;;;;6136418;23;20201;-87
2021/08/31 00:59:18;;;;;;;26.45;21.08;;;15.10;99.90;;;;;;6135811;23;20238;-86
2021/08/31 01:01:47;;;;;;;30.80;20.05;;;15.10;99.90;;;;;;6135081;23;20205;-87
2021/08/31 01:04:14;;;;;;;23.55;18.52;;;15.00;99.90;;;;;;6135080;23;20181;-85
2021/08/31 01:06:42;;;;;;;22.70;18.48;;;15.00;99.90;;;;;;6135653;23;20237;-86
2021/08/31 01:09:10;;;;;;;23.75;20.15;;;15.00;99.90;;;;;;6134680;23;20276;-86
2021/08/31 01:11:37;;;;;;;29.25;21.17;;;15.10;99.90;;;;;;6133302;23;20178;-85
2021/08/31 01:14:05;;;;;;;24.42;20.40;;;15.10;99.90;;;;;;6135210;23;20244;-87
2021/08/31 01:16:32;;;;;;;25.90;20.45;;;15.00;99.90;;;;;;6135409;23;20194;-87
2021/08/31 01:19:01;;;;;;;32.25;23.45;;;15.00;99.90;;;;;;6135284;23;20245;-86
2021/08/31 01:21:31;;;;;;;37.85;22.10;;;15.00;99.90;;;;;;6136013;23;20209;-85
2021/08/31 01:23:58;;;;;;;35.80;25.08;;;15.00;99.90;;;;;;6135565;23;20184;-86
2021/08/31 01:26:29;;;;;;;26.02;21.45;;;15.00;99.90;;;;;;6134841;23;20203;-86
2021/08/31 01:28:57;;;;;;;32.10;23.98;;;15.00;99.90;;;;;;6134746;23;20240;-86
2021/08/31 01:31:24;;;;;;;43.95;24.67;;;15.00;99.90;;;;;;6135639;23;20205;-86
2021/08/31 01:33:54;;;;;;;29.23;22.50;;;15.00;99.90;;;;;;6138694;23;20177;-87
2021/08/31 01:36:22;;;;;;;31.65;24.65;;;15.00;99.90;;;;;;6144243;23;20190;-83
2021/08/31 01:38:50;;;;;;;35.80;27.33;;;15.00;99.90;;;;;;6152347;23;20213;-85
2021/08/31 01:41:18;;;;;;;31.25;24.77;;;15.00;99.90;;;;;;6139929;23;20181;-87
2021/08/31 01:43:46;;;;;;;37.90;25.85;;;14.90;99.90;;;;;;6137478;23;20256;-86
2021/08/31 01:46:14;;;;;;;39.50;25.23;;;14.90;99.90;;;;;;6136168;23;20169;-84
2021/08/31 01:48:41;;;;;;;37.20;28.48;;;14.90;99.90;;;;;;6137891;23;20233;-86
2021/08/31 01:51:09;;;;;;;35.60;23.92;;;14.90;99.90;;;;;;6138879;23;20197;-85
2021/08/31 01:53:36;;;;;;;37.90;25.55;;;14.90;99.90;;;;;;6138490;23;20197;-86
2021/08/31 01:56:04;;;;;;;36.70;27.95;;;14.90;99.90;;;;;;6137091;23;20181;-86
2021/08/31 01:58:32;;;;;;;41.60;27.05;;;14.90;99.90;;;;;;6143845;23;20205;-85
2021/08/31 02:01:02;;;;;;;40.25;26.23;;;14.90;99.90;;;;;;6144574;23;20177;-86
2021/08/31 02:03:29;;;;;;;37.65;27.83;;;14.90;99.90;;;;;;6146695;23;20176;-85
2021/08/31 02:05:56;;;;;;;32.75;23.80;;;14.80;99.90;;;;;;6146841;23;20233;-84
2021/08/31 02:08:23;;;;;;;37.08;24.27;;;14.80;99.90;;;;;;6136083;23;20180;-86
2021/08/31 02:10:51;;;;;;;43.05;31.85;;;14.80;99.90;;;;;;6136627;23;20276;-86
2021/08/31 02:13:18;;;;;;;36.40;27.15;;;14.80;99.90;;;;;;6138999;23;20217;-86
2021/08/31 02:15:51;;;;;;;41.40;29.35;;;14.80;99.90;;;;;;6130857;23;20181;-87
2021/08/31 02:18:19;;;;;;;37.17;27.17;;;14.60;99.90;;;;;;6131981;23;20273;-87
2021/08/31 02:20:48;;;;;;;46.03;31.13;;;14.70;99.90;;;;;;6131394;23;20173;-86
2021/08/31 02:23:15;;;;;;;53.03;30.73;;;14.70;99.90;;;;;;6130737;23;20180;-87
2021/08/31 02:25:42;;;;;;;47.25;31.63;;;14.60;99.90;;;;;;6131016;23;20261;-85
2021/08/31 02:28:09;;;;;;;60.65;35.13;;;14.60;99.90;;;;;;6131924;23;20216;-87
2021/08/31 02:30:37;;;;;;;53.45;35.28;;;14.60;99.90;;;;;;6131427;23;20285;-86
2021/08/31 02:33:04;;;;;;;54.42;34.45;;;14.60;99.90;;;;;;6131180;23;20208;-87
2021/08/31 02:35:33;;;;;;;68.00;36.92;;;14.70;99.90;;;;;;6132356;23;20174;-85
2021/08/31 02:38:00;;;;;;;57.90;35.05;;;14.70;99.90;;;;;;6147176;23;20209;-86
2021/08/31 02:40:28;;;;;;;55.53;37.13;;;14.70;99.90;;;;;;6134267;23;20178;-86
2021/08/31 02:42:55;;;;;;;50.15;31.08;;;14.70;99.90;;;;;;6131538;23;20192;-85
2021/08/31 02:45:22;;;;;;;76.22;36.13;;;14.60;99.90;;;;;;6132293;23;20169;-86
2021/08/31 02:47:49;;;;;;;63.95;34.90;;;14.70;99.90;;;;;;6138631;23;20217;-84
2021/08/31 02:50:19;;;;;;;56.83;34.35;;;14.60;99.90;;;;;;6153037;23;20237;-82
2021/08/31 02:52:48;;;;;;;64.60;35.42;;;14.60;99.90;;;;;;6153253;23;20154;-82
2021/08/31 02:55:16;;;;;;;81.35;39.63;;;14.60;99.90;;;;;;6153831;23;20217;-83
2021/08/31 02:57:43;;;;;;;93.28;39.88;;;14.60;99.90;;;;;;6153744;23;20253;-83
2021/08/31 03:03:33;;;;;;;121.60;43.55;;;14.60;99.90;;;;;;6143626;23;20242;-87
2021/08/31 03:06:00;;;;;;;119.45;43.75;;;14.60;99.90;;;;;;6130930;23;20188;-87
2021/08/31 03:08:29;;;;;;;60.47;33.80;;;14.60;99.90;;;;;;6130140;23;20252;-86
2021/08/31 03:10:57;;;;;;;101.75;41.33;;;14.70;99.90;;;;;;6130501;23;20203;-86
2021/08/31 03:13:27;;;;;;;70.05;37.47;;;14.70;99.90;;;;;;6131252;23;20716;-87
2021/08/31 03:15:54;;;;;;;62.47;35.28;;;14.70;99.90;;;;;;6131185;23;20180;-86
2021/08/31 03:18:21;;;;;;;94.28;39.33;;;14.70;99.90;;;;;;6130125;23;20254;-86
2021/08/31 03:20:48;;;;;;;77.35;39.28;;;14.70;99.90;;;;;;6130537;23;20169;-86
2021/08/31 03:23:15;;;;;;;69.35;38.30;;;14.70;99.90;;;;;;6130132;23;20817;-86
2021/08/31 03:25:44;;;;;;;79.15;39.03;;;14.70;99.90;;;;;;6129772;23;20180;-86
2021/08/31 03:28:13;;;;;;;68.57;36.67;;;14.70;99.90;;;;;;6141907;23;20240;-85
2021/08/31 03:30:40;;;;;;;68.35;36.03;;;14.70;99.90;;;;;;6147158;23;20209;-84
2021/08/31 03:33:07;;;;;;;73.25;36.47;;;14.70;99.90;;;;;;6149477;23;20166;-86
2021/08/31 03:35:34;;;;;;;59.25;33.97;;;14.70;99.90;;;;;;6142027;23;20174;-86
2021/08/31 03:38:03;;;;;;;68.55;33.55;;;14.70;99.90;;;;;;6149642;23;20197;-85
2021/08/31 03:40:32;;;;;;;55.42;31.85;;;14.60;99.90;;;;;;6153838;23;20237;-83
2021/08/31 03:43:00;;;;;;;61.90;34.53;;;14.60;99.90;;;;;;6154227;23;20207;-83
2021/08/31 03:45:27;;;;;;;61.05;34.25;;;14.50;99.90;;;;;;6154313;23;20166;-83
2021/08/31 03:47:59;;;;;;;62.58;34.05;;;14.50;99.90;;;;;;6153945;23;20200;-82
2021/08/31 03:50:28;;;;;;;55.60;31.55;;;14.40;99.90;;;;;;6153888;23;20216;-82
2021/08/31 03:52:55;;;;;;;67.00;36.15;;;14.40;99.90;;;;;;6153973;23;20562;-83
2021/08/31 03:55:22;;;;;;;53.78;31.35;;;14.40;99.90;;;;;;6153353;23;20206;-83
2021/08/31 03:57:49;;;;;;;48.00;32.60;;;14.30;99.90;;;;;;6150993;23;20253;-85
2021/08/31 04:00:18;;;;;;;43.15;28.90;;;14.30;99.90;;;;;;6149933;23;20188;-84
2021/08/31 04:02:45;;;;;;;44.72;31.73;;;14.20;99.90;;;;;;6146966;23;20233;-85
2021/08/31 04:05:14;;;;;;;46.92;30.27;;;14.20;99.90;;;;;;6145564;23;20192;-85
2021/08/31 04:07:41;;;;;;;43.85;30.17;;;14.20;99.90;;;;;;6148411;23;20217;-85
2021/08/31 04:10:11;;;;;;;43.03;28.40;;;14.20;99.90;;;;;;6147795;23;20197;-83
2021/08/31 04:12:38;;;;;;;44.13;29.77;;;14.10;99.90;;;;;;6148208;23;20165;-86
2021/08/31 04:15:06;;;;;;;34.30;24.80;;;14.10;99.90;;;;;;6146139;23;20179;-87
2021/08/31 04:17:35;;;;;;;38.70;25.38;;;14.10;99.90;;;;;;6136968;23;20193;-86
2021/08/31 04:20:02;;;;;;;39.05;25.52;;;14.10;99.90;;;;;;6135324;23;20192;-84
2021/08/31 04:22:29;;;;;;;36.65;26.05;;;14.10;99.90;;;;;;6135047;23;20253;-87
2021/08/31 04:24:57;;;;;;;37.40;24.73;;;14.10;99.90;;;;;;6135230;23;20208;-87
2021/08/31 04:27:24;;;;;;;34.97;25.40;;;14.10;99.90;;;;;;6142557;23;20229;-86
2021/08/31 04:29:51;;;;;;;35.53;25.17;;;14.10;99.90;;;;;;6149859;23;20814;-87
2021/08/31 04:32:20;;;;;;;34.53;25.40;;;14.10;99.90;;;;;;6152607;23;20188;-85
2021/08/31 04:34:51;;;;;;;34.58;25.83;;;14.10;99.90;;;;;;6150776;23;20199;-87
2021/08/31 04:37:18;;;;;;;28.38;21.92;;;14.00;99.90;;;;;;6147557;23;20226;-86
2021/08/31 04:39:46;;;;;;;33.38;23.08;;;14.10;99.90;;;;;;6143055;23;20182;-86
2021/08/31 04:42:13;;;;;;;25.38;20.67;;;14.10;99.90;;;;;;6144075;23;20178;-84
2021/08/31 04:44:40;;;;;;;34.33;25.10;;;14.10;99.90;;;;;;6145818;23;20178;-84
2021/08/31 05:00:09;;;;;;;21.65;18.02;;;14.10;99.90;;;;;;6009564;23;20199;-85
2021/08/31 05:03:34;;;;;;;24.40;18.70;;;14.10;99.90;;;;;;6009421;23;20177;-84
2021/08/31 05:06:04;;;;;;;21.30;17.25;;;14.10;99.90;;;;;;6066129;23;20167;-84
2021/08/31 05:12:03;;;;;;;20.30;15.68;;;14.30;99.90;;;;;;6066418;23;20271;-84
2021/08/31 05:14:30;;;;;;;19.20;14.35;;;14.30;99.90;;;;;;6066776;23;20225;-83
2021/08/31 05:16:59;;;;;;;17.90;14.85;;;14.40;99.90;;;;;;6101809;23;20270;-85
2021/08/31 05:19:27;;;;;;;16.33;13.38;;;14.40;99.90;;;;;;6154222;23;20166;-85
2021/08/31 05:21:57;;;;;;;18.40;15.48;;;14.50;99.90;;;;;;6139225;23;20229;-86
2021/08/31 05:24:25;;;;;;;25.48;17.15;;;14.60;99.90;;;;;;6135469;23;20162;-86
2021/08/31 05:26:52;;;;;;;20.50;14.30;;;14.70;99.90;;;;;;6136532;23;20194;-86
2021/08/31 05:30:10;;;;;;;21.95;15.65;;;14.70;99.90;;;;;;6137320;23;20197;-84
2021/08/31 05:36:12;;;;;;;14.20;12.30;;;15.00;99.90;;;;;;6135288;23;20173;-83
2021/08/31 05:39:32;;;;;;;;;;;;;;;;;;;;;
2021/08/31 05:54:52;;;;;;;8.70;7.67;;;20.30;99.90;;;;;;6036209;23;20635;-84
2021/08/31 06:24:53;;;;;;;10.90;7.73;;;24.80;95.60;;;;;;6044564;23;20447;-82
2021/08/31 06:46:48;;;;;;;7.60;6.90;;;27.10;90.70;;;;;;5965913;24;20478;-84
2021/08/31 06:49:18;;;;;;;8.77;7.60;;;27.30;90.30;;;;;;5944622;24;20427;-83
2021/08/31 06:51:58;;;;;;;9.27;7.03;;;27.50;89.00;;;;;;6006268;23;20452;-83
2021/08/31 06:54:25;;;;;;;9.50;7.03;;;27.60;89.50;;;;;;6054839;23;20456;-83
2021/08/31 07:04:29;;;;;;;10.17;7.63;;;28.10;86.20;;;;;;6043996;23;20484;-82
2021/08/31 07:07:21;;;;;;;12.23;9.17;;;28.10;87.10;;;;;;6048661;23;20480;-82
2021/08/31 07:10:01;;;;;;;11.80;7.20;;;28.40;86.50;;;;;;6134996;23;20420;-84
2021/08/31 07:12:30;;;;;;;9.60;7.47;;;28.30;85.30;;;;;;6135259;23;20971;-84
2021/08/31 07:15:01;;;;;;;8.30;7.03;;;28.50;85.70;;;;;;6134767;23;20811;-84
2021/08/31 07:20:36;;;;;;;12.43;7.20;;;28.90;83.80;;;;;;6045171;23;20460;-84
2021/08/31 07:23:53;;;;;;;;;;;;;;;;;;;;;
2021/08/31 07:36:48;;;;;;;11.33;7.73;;;29.30;83.50;;;;;;5864942;24;20874;-83
2021/08/31 07:43:16;;;;;;;7.30;6.50;;;29.20;83.90;;;;;;6045427;23;20442;-84
2021/08/31 08:04:16;;;;;;;8.97;6.23;;;29.70;81.80;;;;;;6004787;23;20475;-84
2021/08/31 08:10:23;;;;;;;8.97;6.23;;;30.50;79.90;;;;;;5905831;24;20493;-84
2021/08/31 08:12:52;;;;;;;10.67;6.27;;;30.50;77.50;;;;;;5965329;24;20462;-84
2021/08/31 08:15:25;;;;;;;9.33;5.60;;;30.40;78.00;;;;;;6021701;23;20424;-84
2021/08/31 08:18:46;;;;;;;8.13;6.00;;;30.50;77.50;;;;;;6054903;23;20518;-82
2021/08/31 08:21:37;;;;;;;;;;;;;;;;;;;;;
2021/08/31 08:24:41;;;;;;;9.60;5.20;;;30.70;78.10;;;;;;6057567;23;20414;-83
2021/08/31 08:33:08;;;;;;;6.80;5.67;;;31.40;74.30;;;;;;6053169;23;20423;-83
2021/08/31 08:42:56;;;;;;;5.83;4.90;;;31.00;73.10;;;;;;5996449;23;20466;-84
2021/08/31 08:45:50;;;;;;;6.90;5.00;;;31.10;74.20;;;;;;5977472;23;20790;-84
2021/08/31 08:48:25;;;;;;;6.43;5.10;;;31.40;72.70;;;;;;6048649;23;20439;-84
2021/08/31 08:51:09;;;;;;;6.30;4.43;;;31.90;72.70;;;;;;6048872;23;20447;-84
2021/08/31 09:00:08;;;;;;;5.20;4.60;;;32.10;70.10;;;;;;6019390;23;20412;-84
2021/08/31 09:09:54;;;;;;;7.40;5.27;;;32.10;71.50;;;;;;5851429;24;20521;-83
2021/08/31 09:12:49;;;;;;;5.70;4.97;;;32.00;72.00;;;;;;5996260;23;20468;-84
2021/08/31 09:15:31;;;;;;;5.27;4.73;;;32.10;70.00;;;;;;6019425;23;20460;-83
2021/08/31 09:18:27;;;;;;;8.47;4.60;;;32.30;71.20;;;;;;6019623;23;20440;-83
2021/08/31 09:24:26;;;;;;;5.50;5.00;;;33.20;68.70;;;;;;6013498;23;20413;-84
2021/08/31 09:33:47;;;;;;;5.83;5.23;;;33.50;67.60;;;;;;6014411;23;20494;-84
2021/08/31 09:36:20;;;;;;;8.07;5.37;;;33.20;68.20;;;;;;6017967;23;20413;-84
2021/08/31 09:39:01;;;;;;;6.87;4.33;;;32.70;68.30;;;;;;6019338;23;20446;-84
2021/08/31 09:41:56;;;;;;;5.80;5.20;;;32.60;69.00;;;;;;6019020;23;20449;-84
2021/08/31 12:05:05;;;;;;;9.07;6.10;;;24.90;92.40;;;;;;5891018;23;20422;-83
2021/08/31 12:30:16;;;;;;;9.77;6.13;;;25.40;91.80;;;;;;6106564;23;20453;-83
2021/08/31 12:32:53;;;;;;;7.40;5.70;;;25.60;90.90;;;;;;6108804;23;20407;-84
2021/08/31 13:12:52;;;;;;;;;;;;;;;;;;;;;
2021/08/31 13:15:51;;;;;;;6.80;4.90;;;25.60;90.10;;;;;;6092419;23;20395;-83
2021/08/31 13:18:19;;;;;;;6.60;5.30;;;25.70;90.00;;;;;;6081099;23;20431;-83
2021/08/31 13:20:48;;;;;;;8.47;5.30;;;25.40;90.30;;;;;;6079002;23;20422;-84
2021/08/31 13:23:27;;;;;;;6.70;5.40;;;25.20;90.60;;;;;;6079751;23;20454;-84
2021/08/31 13:26:55;;;;;;;6.00;4.23;;;24.60;90.60;;;;;;6082860;23;20403;-84
2021/08/31 13:38:30;;;;;;;10.17;6.13;;;24.40;92.00;;;;;;6044459;23;20421;-83
2021/08/31 13:40:58;;;;;;;9.17;6.20;;;24.80;91.80;;;;;;6108996;23;20875;-83
2021/08/31 13:43:29;;;;;;;8.03;5.30;;;24.90;91.00;;;;;;6107215;23;20470;-83
2021/08/31 13:45:59;;;;;;;7.30;6.30;;;24.90;91.30;;;;;;6110021;23;20430;-83
2021/08/31 13:48:28;;;;;;;9.10;5.60;;;24.80;91.40;;;;;;6110641;23;20395;-85
2021/08/31 13:50:56;;;;;;;9.93;7.20;;;24.70;91.50;;;;;;6109302;23;20422;-84
2021/08/31 13:53:24;;;;;;;11.80;5.20;;;24.60;91.80;;;;;;6107234;23;20460;-84
2021/08/31 13:55:52;;;;;;;12.47;6.03;;;24.50;91.70;;;;;;6110330;23;20402;-84
2021/08/31 13:58:20;;;;;;;9.67;6.10;;;24.30;91.80;;;;;;6115347;23;20419;-84
2021/08/31 14:00:48;;;;;;;6.07;4.37;;;24.30;91.90;;;;;;6115481;23;20425;-84
2021/08/31 14:03:16;;;;;;;6.90;4.80;;;24.30;92.80;;;;;;6115192;23;20442;-84
2021/08/31 14:05:57;;;;;;;9.63;5.30;;;24.20;93.90;;;;;;6115275;23;20418;-83
2021/08/31 14:08:36;;;;;;;;;;;;;;;;;;;;;
2021/08/31 14:11:05;;;;;;;6.63;4.90;;;24.00;93.70;;;;;;6111056;23;20389;-84
2021/08/31 14:13:38;;;;;;;9.03;4.90;;;23.90;93.20;;;;;;6109061;23;20403;-83
2021/08/31 14:16:06;;;;;;;12.80;5.37;;;23.90;93.50;;;;;;6108136;23;20601;-83
2021/08/31 14:18:33;;;;;;;11.27;5.87;;;24.00;94.10;;;;;;6115225;23;20385;-83
2021/08/31 14:21:02;;;;;;;12.63;6.50;;;23.80;95.00;;;;;;6121623;23;20417;-83
2021/08/31 14:23:31;;;;;;;9.20;4.80;;;23.50;95.70;;;;;;6121975;23;20556;-83
2021/08/31 14:26:04;;;;;;;14.73;6.20;;;23.60;96.40;;;;;;6120774;23;20425;-84
2021/08/31 14:28:32;;;;;;;11.07;6.10;;;23.80;96.70;;;;;;6118536;23;20383;-83
2021/08/31 14:31:01;;;;;;;9.23;5.50;;;24.00;96.60;;;;;;6108183;23;20413;-83
2021/08/31 14:33:28;;;;;;;9.50;5.33;;;24.10;96.30;;;;;;6106398;23;20457;-83
2021/08/31 14:36:00;;;;;;;17.83;7.50;;;23.90;96.00;;;;;;6110093;23;20421;-83
2021/08/31 14:38:27;;;;;;;8.77;5.47;;;24.00;96.20;;;;;;6114390;23;20418;-83
2021/08/31 14:40:57;;;;;;;7.57;4.70;;;23.90;96.70;;;;;;6112953;23;20406;-83
2021/08/31 14:43:26;;;;;;;13.47;6.03;;;23.70;96.60;;;;;;6113791;23;20453;-84
2021/08/31 14:45:56;;;;;;;14.20;5.53;;;23.60;96.70;;;;;;6114794;23;20501;-84
2021/08/31 14:48:37;;;;;;;13.87;5.70;;;23.60;97.00;;;;;;6111985;23;20497;-83
2021/08/31 14:51:05;;;;;;;10.83;5.50;;;23.60;97.20;;;;;;6112241;23;20414;-85
2021/08/31 14:53:39;;;;;;;12.20;5.87;;;23.60;97.60;;;;;;6110243;23;20719;-83
2021/08/31 14:56:11;;;;;;;8.73;5.13;;;23.60;97.30;;;;;;6108830;23;20476;-83
2021/08/31 14:58:39;;;;;;;8.83;6.07;;;23.70;97.50;;;;;;6118292;23;20466;-83
2021/08/31 15:01:15;;;;;;;15.53;5.27;;;23.80;96.80;;;;;;6109068;23;20410;-83
2021/08/31 15:03:43;;;;;;;13.43;5.70;;;23.70;96.60;;;;;;6106957;23;20470;-83
2021/08/31 15:06:13;;;;;;;12.23;5.50;;;23.60;97.30;;;;;;6105808;23;20413;-82
2021/08/31 15:08:41;;;;;;;9.43;5.33;;;23.40;96.90;;;;;;6106802;23;20426;-83
2021/08/31 15:11:15;;;;;;;8.57;4.70;;;23.20;97.60;;;;;;6106836;23;20398;-83
2021/08/31 15:13:45;;;;;;;6.03;4.50;;;23.20;97.60;;;;;;6104615;23;20416;-83
2021/08/31 15:16:21;;;;;;;7.27;4.73;;;23.10;98.10;;;;;;6110640;23;20379;-83
2021/08/31 15:18:51;;;;;;;9.97;5.30;;;23.00;97.50;;;;;;6107015;23;20378;-83
2021/08/31 15:21:23;;;;;;;9.13;4.50;;;23.00;97.90;;;;;;6105548;23;20383;-83
2021/08/31 15:23:53;;;;;;;11.27;5.10;;;23.00;98.10;;;;;;6106526;23;20442;-83
2021/08/31 15:26:22;;;;;;;9.10;6.10;;;22.90;98.30;;;;;;6107077;23;20410;-83
2021/08/31 15:28:56;;;;;;;8.10;5.10;;;22.80;98.20;;;;;;6107055;23;20398;-83
2021/08/31 15:31:25;;;;;;;11.73;5.70;;;22.70;98.60;;;;;;6104681;23;20391;-83
2021/08/31 15:33:54;;;;;;;6.83;4.40;;;22.60;98.40;;;;;;6109715;23;20461;-83
2021/08/31 15:36:21;;;;;;;6.20;4.60;;;22.40;98.80;;;;;;6113210;23;20445;-83
2021/08/31 15:38:49;;;;;;;10.77;4.60;;;22.40;98.70;;;;;;6109817;23;20429;-83
2021/08/31 15:41:23;;;;;;;8.43;4.90;;;22.30;98.90;;;;;;6105582;23;20452;-83
2021/08/31 15:43:58;;;;;;;8.20;5.17;;;22.30;99.60;;;;;;6108663;23;20998;-83
2021/08/31 15:46:25;;;;;;;9.87;5.90;;;22.30;99.10;;;;;;6107291;23;20423;-83
2021/08/31 15:48:53;;;;;;;9.60;4.37;;;22.30;99.70;;;;;;6106440;23;20482;-82
2021/08/31 15:51:20;;;;;;;11.43;5.77;;;22.30;99.20;;;;;;6108822;23;20414;-83
2021/08/31 15:53:48;;;;;;;11.13;4.40;;;22.30;99.70;;;;;;6109297;23;20406;-83
2021/08/31 15:56:15;;;;;;;10.63;5.20;;;22.40;99.90;;;;;;6106519;23;20473;-83
2021/08/31 15:58:52;;;;;;;10.10;5.30;;;22.30;99.90;;;;;;6105469;23;20404;-85
2021/08/31 16:01:25;;;;;;;6.93;4.20;;;22.20;99.80;;;;;;6106292;23;20482;-84
2021/08/31 16:03:52;;;;;;;11.47;5.10;;;22.20;99.90;;;;;;6106578;23;20768;-84
2021/08/31 16:06:19;;;;;;;12.53;4.77;;;22.00;99.90;;;;;;6107210;23;20424;-84
2021/08/31 16:08:50;;;;;;;10.27;5.00;;;22.00;99.90;;;;;;6108258;23;20398;-84
2021/08/31 16:11:17;;;;;;;7.93;3.97;;;21.90;99.90;;;;;;6109869;23;20379;-84
2021/08/31 16:13:46;;;;;;;7.97;5.03;;;21.90;99.90;;;;;;6109805;23;20412;-84
2021/08/31 16:16:14;;;;;;;9.70;5.07;;;21.90;99.90;;;;;;6110356;23;20417;-84
2021/08/31 16:18:42;;;;;;;8.73;5.13;;;21.80;99.90;;;;;;6108484;23;20527;-84
2021/08/31 16:21:13;;;;;;;10.73;4.97;;;21.80;99.90;;;;;;6109420;23;20397;-84
2021/08/31 16:23:41;;;;;;;7.33;4.70;;;21.80;99.90;;;;;;6110006;23;20471;-85
2021/08/31 16:26:11;;;;;;;19.73;5.00;;;21.90;99.90;;;;;;6110133;23;20443;-84
2021/08/31 16:28:40;;;;;;;8.37;4.60;;;21.60;99.90;;;;;;6109888;23;20420;-84
2021/08/31 16:31:10;;;;;;;11.90;5.60;;;21.50;99.90;;;;;;6110100;23;20466;-85
2021/08/31 16:33:38;;;;;;;10.17;5.37;;;21.40;99.90;;;;;;6108636;23;20498;-84
2021/08/31 16:36:11;;;;;;;7.87;5.80;;;21.40;99.90;;;;;;6110155;23;20431;-85
2021/08/31 16:38:40;;;;;;;9.60;4.80;;;21.30;99.90;;;;;;6110194;23;20413;-84
2021/08/31 16:41:08;;;;;;;11.87;4.93;;;21.20;99.90;;;;;;6109276;23;20416;-84
2021/08/31 16:43:36;;;;;;;11.60;5.70;;;21.10;99.90;;;;;;6108348;23;20609;-84
2021/08/31 16:46:05;;;;;;;10.67;4.23;;;21.00;99.90;;;;;;6109272;23;20934;-84
2021/08/31 16:48:34;;;;;;;14.90;6.67;;;20.80;99.90;;;;;;6110526;23;20442;-85
2021/08/31 16:51:02;;;;;;;15.47;5.53;;;20.70;99.90;;;;;;6111328;23;20403;-85
2021/08/31 16:53:29;;;;;;;10.97;6.20;;;20.70;99.90;;;;;;6110484;23;20433;-85
2021/08/31 16:56:09;;;;;;;12.30;4.50;;;20.60;99.90;;;;;;6110024;23;20402;-84
2021/08/31 16:58:37;;;;;;;6.90;4.53;;;20.50;99.90;;;;;;6110298;23;20544;-85
2021/08/31 17:01:07;;;;;;;11.87;5.80;;;20.50;99.90;;;;;;6113603;23;20457;-84
2021/08/31 17:03:40;;;;;;;12.03;6.13;;;20.50;99.90;;;;;;6111164;23;20449;-84
2021/08/31 17:06:09;;;;;;;10.77;5.10;;;20.40;99.90;;;;;;6112682;23;20430;-83
2021/08/31 17:08:53;;;;;;;13.40;5.40;;;20.30;99.90;;;;;;6111696;23;20394;-83
2021/08/31 17:11:20;;;;;;;13.23;4.70;;;20.20;99.90;;;;;;6110513;23;20473;-83
2021/08/31 17:13:48;;;;;;;10.07;5.37;;;20.20;99.90;;;;;;6115688;23;20462;-83
2021/08/31 17:16:16;;;;;;;14.13;5.60;;;20.10;99.90;;;;;;6114306;23;20394;-84
2021/08/31 17:18:45;;;;;;;11.50;4.73;;;20.00;99.90;;;;;;6113301;23;20441;-84
2021/08/31 17:21:14;;;;;;;11.93;4.30;;;19.90;99.90;;;;;;6115595;23;20437;-83
2021/08/31 17:23:41;;;;;;;11.00;5.10;;;19.80;99.90;;;;;;6112925;23;20442;-83
2021/08/31 17:26:08;;;;;;;11.67;5.27;;;19.80;99.90;;;;;;6111743;23;20422;-84
2021/08/31 17:28:36;;;;;;;13.83;5.27;;;19.70;99.90;;;;;;6110672;23;20421;-83
2021/08/31 17:31:05;;;;;;;10.77;4.90;;;19.60;99.90;;;;;;6110618;23;20406;-82
2021/08/31 17:33:33;;;;;;;7.43;4.97;;;19.60;99.90;;;;;;6109021;23;20433;-84
2021/08/31 17:36:12;;;;;;;8.80;5.57;;;19.60;99.90;;;;;;6108609;23;20505;-83
2021/08/31 17:38:40;;;;;;;12.03;4.90;;;19.50;99.90;;;;;;6110396;23;20497;-83
2021/08/31 17:41:07;;;;;;;12.07;4.93;;;19.40;99.90;;;;;;6110456;23;20423;-83
2021/08/31 17:43:37;;;;;;;12.30;5.23;;;19.40;99.90;;;;;;6110634;23;20445;-84
2021/08/31 17:46:05;;;;;;;12.00;6.43;;;19.30;99.90;;;;;;6110696;23;20414;-84
2021/08/31 17:48:33;;;;;;;16.40;7.27;;;19.30;99.90;;;;;;6112936;23;20469;-84
2021/08/31 17:51:06;;;;;;;14.47;7.03;;;19.30;99.90;;;;;;6113016;23;20421;-84
2021/08/31 17:53:35;;;;;;;13.60;6.23;;;19.20;99.90;;;;;;6113286;23;20415;-84
2021/08/31 17:56:03;;;;;;;8.90;5.63;;;19.20;99.90;;;;;;6113275;23;20438;-84
2021/08/31 17:58:31;;;;;;;13.50;6.60;;;19.20;99.90;;;;;;6112992;23;20406;-84
2021/08/31 18:01:01;;;;;;;12.90;5.60;;;19.10;99.90;;;;;;6111614;23;20397;-84
2021/08/31 18:03:31;;;;;;;10.87;5.70;;;19.00;99.90;;;;;;6109563;23;20431;-84
2021/08/31 18:05:58;;;;;;;12.37;6.50;;;18.90;99.90;;;;;;6109288;23;20414;-83
2021/08/31 18:08:27;;;;;;;16.43;6.43;;;18.80;99.90;;;;;;6108302;23;20416;-84
2021/08/31 18:10:55;;;;;;;11.77;6.63;;;18.80;99.90;;;;;;6108187;23;20414;-84
2021/08/31 18:13:22;;;;;;;9.70;5.00;;;18.70;99.90;;;;;;6112349;23;20418;-84
2021/08/31 18:15:50;;;;;;;10.97;6.57;;;18.50;99.90;;;;;;6108278;23;20402;-84
2021/08/31 18:18:18;;;;;;;11.13;6.77;;;18.60;99.90;;;;;;6108091;23;20448;-84
2021/08/31 18:20:45;;;;;;;17.07;5.60;;;18.50;99.90;;;;;;6108388;23;20485;-85
2021/08/31 18:23:19;;;;;;;17.23;6.63;;;18.30;99.90;;;;;;6108886;23;20473;-84
2021/08/31 18:25:48;;;;;;;10.07;6.20;;;18.40;99.90;;;;;;6108332;23;20422;-84
2021/08/31 18:28:15;;;;;;;11.47;6.50;;;18.30;99.90;;;;;;6109528;23;20581;-84
2021/08/31 18:30:43;;;;;;;15.40;6.03;;;18.10;99.90;;;;;;6107207;23;20502;-84
2021/08/31 18:33:29;;;;;;;10.80;6.83;;;18.20;99.90;;;;;;6107801;23;20401;-84
2021/08/31 18:35:58;;;;;;;13.53;6.90;;;18.10;99.90;;;;;;6108008;23;20413;-84
2021/08/31 18:38:26;;;;;;;11.10;6.77;;;18.10;99.90;;;;;;6107102;23;20463;-84
2021/08/31 18:40:58;;;;;;;19.10;8.77;;;18.10;99.90;;;;;;6106430;23;20488;-84
2021/08/31 18:43:26;;;;;;;16.23;7.23;;;18.00;99.90;;;;;;6106050;23;20441;-84
2021/08/31 18:49:11;;;;;;;12.10;7.00;;;17.90;99.90;;;;;;5995526;23;20788;-84
2021/08/31 18:51:44;;;;;;;12.60;5.70;;;17.80;99.90;;;;;;6104644;23;20693;-85
2021/08/31 18:54:12;;;;;;;14.13;6.60;;;17.70;99.90;;;;;;6112985;23;20394;-86
2021/08/31 18:56:48;;;;;;;11.03;6.13;;;17.80;99.90;;;;;;6119306;23;20445;-85
2021/08/31 18:59:16;;;;;;;13.93;6.20;;;17.80;99.90;;;;;;6118398;23;20432;-88
2021/08/31 19:01:43;;;;;;;12.27;6.67;;;17.70;99.90;;;;;;6117726;23;20410;-87
2021/08/31 19:04:10;;;;;;;20.43;6.83;;;17.70;99.90;;;;;;6116121;23;20445;-84
2021/08/31 19:06:37;;;;;;;16.73;7.33;;;17.70;99.90;;;;;;6115984;23;20492;-86
2021/08/31 19:09:04;;;;;;;14.80;6.30;;;17.60;99.90;;;;;;6115543;23;20423;-89
2021/08/31 19:11:32;;;;;;;12.10;6.63;;;17.60;99.90;;;;;;6115503;23;20421;-86
2021/08/31 19:14:00;;;;;;;15.13;6.60;;;17.50;99.90;;;;;;6114861;23;20473;-87
2021/08/31 19:16:28;;;;;;;13.87;7.87;;;17.50;99.90;;;;;;6118285;23;20466;-88
2021/08/31 19:18:56;;;;;;;17.63;7.43;;;17.50;99.90;;;;;;6110289;23;20430;-86
2021/08/31 19:25:11;;;;;;;10.88;6.35;;;17.30;99.90;;;;;;6000324;23;20197;-83